createdAt,value
2023-03-26T00:18:21.589Z,92373.00
2023-03-26T00:30:22.111Z,92379.00
2023-03-26T00:42:22.650Z,92365.00
2023-03-26T01:06:23.629Z,92338.00
2023-03-26T01:14:24.059Z,92334.00
2023-03-26T01:22:24.308Z,92348.00
2023-03-26T01:34:24.806Z,92338.00
2023-03-26T03:06:29.071Z,92232.00
2023-03-26T03:10:29.254Z,92244.00
2023-03-26T03:14:29.436Z,92236.00
2023-03-26T03:18:29.647Z,92240.00
2023-03-26T03:22:29.906Z,92232.00
2023-03-26T03:26:30.205Z,92229.00
2023-03-26T03:30:30.283Z,92217.00
2023-03-26T03:34:30.470Z,92211.00
2023-03-26T03:38:30.675Z,92203.00
2023-03-26T03:42:30.849Z,92199.00
2023-03-26T03:46:31.077Z,92195.00
2023-03-26T03:50:33.064Z,92193.00
2023-03-26T03:54:31.214Z,92207.00
2023-03-26T03:58:31.222Z,92203.00
2023-03-26T04:02:31.188Z,92191.00
2023-03-26T04:06:31.098Z,92182.00
2023-03-26T04:10:31.042Z,92176.00
2023-03-26T04:14:31.005Z,92154.00
2023-03-26T04:18:30.965Z,92156.00
2023-03-26T04:22:30.936Z,92144.00
2023-03-26T04:26:30.938Z,92136.00
2023-03-26T04:30:31.008Z,92123.00
2023-03-26T04:34:30.969Z,92121.00
2023-03-26T04:38:30.914Z,92121.00
2023-03-26T06:38:29.765Z,91986.00
2023-03-26T08:42:30.758Z,91833.00
2023-03-26T08:46:30.859Z,91847.00
2023-03-26T08:50:30.914Z,91843.00
2023-03-26T08:54:30.960Z,91839.00
2023-03-26T08:58:31.063Z,91833.00
2023-03-26T09:02:31.190Z,91814.00
2023-03-26T09:06:31.263Z,91822.00
2023-03-26T09:10:31.356Z,91814.00
2023-03-26T09:14:31.410Z,91790.00
2023-03-26T09:18:31.485Z,91780.00
2023-03-26T09:22:31.523Z,91769.00
2023-03-26T09:26:31.564Z,91755.00
2023-03-26T09:30:31.628Z,91743.00
2023-03-26T09:34:31.688Z,91737.00
2023-03-26T09:38:31.754Z,91735.00
2023-03-26T09:42:31.797Z,91735.00
2023-03-26T09:46:31.838Z,91735.00
2023-03-26T09:50:31.881Z,91730.00
2023-03-26T09:54:31.949Z,91722.00
2023-03-26T09:58:32.031Z,91730.00
2023-03-26T10:02:46.337Z,91733.00
2023-03-26T10:06:33.048Z,91732.00
2023-03-26T10:10:31.973Z,91727.00
2023-03-26T10:14:31.939Z,91733.00
2023-03-26T10:18:32.179Z,91735.00
2023-03-26T10:22:32.164Z,91737.00
2023-03-26T10:26:32.306Z,91741.00
2023-03-26T10:30:32.426Z,91737.00
2023-03-26T10:34:32.508Z,91741.00
2023-03-26T10:38:32.626Z,91745.00
2023-03-26T10:42:32.728Z,91741.00
2023-03-26T10:46:32.901Z,91741.00
2023-03-26T10:50:32.932Z,91755.00
2023-03-26T10:54:33.065Z,91745.00
2023-03-26T10:58:48.685Z,91743.00
2023-03-26T11:02:34.120Z,91741.00
2023-03-26T11:06:33.002Z,91745.00
2023-03-26T11:10:32.932Z,91749.00
2023-03-26T11:14:35.291Z,91745.00
2023-03-26T11:18:32.869Z,91739.00
2023-03-26T11:22:32.902Z,91741.00
2023-03-26T11:26:32.728Z,91745.00
2023-03-26T11:30:32.677Z,91743.00
2023-03-26T11:34:32.606Z,91739.00
2023-03-26T11:38:32.543Z,91749.00
2023-03-26T11:42:32.476Z,91737.00
2023-03-26T11:46:33.715Z,91730.00
2023-03-26T11:50:32.330Z,91737.00
2023-03-26T11:54:32.276Z,91741.00
2023-03-26T11:58:32.230Z,91747.00
2023-03-26T12:02:32.360Z,91743.00
2023-03-26T12:06:32.130Z,91739.00
2023-03-26T12:10:32.254Z,91749.00
2023-03-26T12:14:32.395Z,91749.00
2023-03-26T12:18:32.568Z,91745.00
2023-03-26T12:22:32.720Z,91751.00
2023-03-26T12:26:32.884Z,91743.00
2023-03-26T12:30:33.047Z,91737.00
2023-03-26T12:34:33.220Z,91735.00
2023-03-26T12:38:33.513Z,91737.00
2023-03-26T12:44:51.502Z,91737.00
2023-03-26T12:47:59.070Z,91741.00
2023-03-26T12:50:35.645Z,91737.00
2023-03-26T12:54:33.540Z,91743.00
2023-03-26T12:58:33.721Z,91741.00
2023-03-26T13:02:33.744Z,91739.00
2023-03-26T13:06:33.588Z,91739.00
2023-03-26T13:10:34.544Z,91735.00
2023-03-26T13:14:33.465Z,91733.00
2023-03-26T13:18:33.649Z,91720.00
2023-03-26T13:22:33.597Z,91716.00
2023-03-26T13:26:33.519Z,91716.00
2023-03-26T13:30:33.507Z,91706.00
2023-03-26T13:34:33.351Z,91704.00
2023-03-26T13:38:33.279Z,91698.00
2023-03-26T13:42:33.204Z,91706.00
2023-03-26T13:46:33.157Z,91706.00
2023-03-26T13:50:33.059Z,91708.00
2023-03-26T13:54:32.995Z,91706.00
2023-03-26T13:58:34.773Z,91700.00
2023-03-26T14:02:32.913Z,91690.00
2023-03-26T14:06:32.809Z,91690.00
2023-03-26T14:10:32.724Z,91692.00
2023-03-26T14:14:32.655Z,91683.00
2023-03-26T14:18:32.595Z,91665.00
2023-03-26T14:22:32.500Z,91669.00
2023-03-26T14:26:32.429Z,91667.00
2023-03-26T14:30:32.372Z,91671.00
2023-03-26T14:34:32.319Z,91677.00
2023-03-26T14:38:32.310Z,91671.00
2023-03-26T14:42:32.270Z,91679.00
2023-03-26T14:46:32.330Z,91669.00
2023-03-26T14:50:32.165Z,91659.00
2023-03-26T14:54:32.122Z,91659.00
2023-03-26T14:58:32.069Z,91645.00
2023-03-26T15:02:32.045Z,91645.00
2023-03-26T15:06:31.932Z,91645.00
2023-03-26T15:10:31.866Z,91645.00
2023-03-26T15:14:31.799Z,91631.00
2023-03-26T15:18:31.736Z,91631.00
2023-03-26T15:22:31.655Z,91618.00
2023-03-26T15:26:31.594Z,91610.00
2023-03-26T15:30:31.510Z,91614.00
2023-03-26T15:34:31.442Z,91618.00
2023-03-26T15:38:31.360Z,91622.00
2023-03-26T15:42:31.270Z,91610.00
2023-03-26T15:46:31.233Z,91606.00
2023-03-26T15:50:31.099Z,91594.00
2023-03-26T15:54:31.560Z,91600.00
2023-03-26T15:58:30.906Z,91600.00
2023-03-26T16:02:30.885Z,91598.00
2023-03-26T16:06:30.834Z,91588.00
2023-03-26T16:10:30.696Z,91584.00
2023-03-26T16:14:30.608Z,91565.00
2023-03-26T16:18:30.542Z,91544.00
2023-03-26T16:22:30.536Z,91524.00
2023-03-26T16:26:30.402Z,91502.00
2023-03-26T16:30:30.404Z,91487.00
2023-03-26T16:34:30.249Z,91489.00
2023-03-26T16:38:30.166Z,91489.00
2023-03-26T16:42:30.347Z,91485.00
2023-03-26T16:46:30.522Z,91495.00
2023-03-26T16:50:30.666Z,91495.00
2023-03-26T16:54:30.824Z,91495.00
2023-03-26T16:58:30.813Z,91483.00
2023-03-26T17:02:30.746Z,91485.00
2023-03-26T17:06:30.608Z,91508.00
2023-03-26T17:10:30.513Z,91514.00
2023-03-26T17:14:30.428Z,91540.00
2023-03-26T17:18:30.385Z,91553.00
2023-03-26T17:22:30.282Z,91563.00
2023-03-26T17:26:30.210Z,91577.00
2023-03-26T17:30:30.126Z,91610.00
2023-03-26T17:34:30.049Z,91618.00
2023-03-26T17:38:30.126Z,91631.00
2023-03-26T17:42:30.069Z,91651.00
2023-03-26T17:46:30.057Z,91643.00
2023-03-26T17:50:29.986Z,91643.00
2023-03-26T17:54:29.914Z,91645.00
2023-03-26T17:58:29.850Z,91639.00
2023-03-26T18:02:29.851Z,91622.00
2023-03-26T18:06:29.725Z,91622.00
2023-03-26T18:10:29.671Z,91610.00
2023-03-26T18:14:29.613Z,91602.00
2023-03-26T18:18:29.535Z,91596.00
2023-03-26T18:22:29.479Z,91586.00
2023-03-26T18:26:29.606Z,91577.00
2023-03-26T18:30:29.710Z,91583.00
2023-03-26T18:34:29.899Z,91565.00
2023-03-26T18:38:38.071Z,91557.00
2023-03-26T18:42:30.971Z,91565.00
2023-03-26T18:46:29.906Z,91579.00
2023-03-26T18:50:30.030Z,91577.00
2023-03-26T18:54:30.144Z,91588.00
2023-03-26T18:58:30.227Z,91610.00
2023-03-26T19:02:30.606Z,91616.00
2023-03-26T19:06:30.327Z,91622.00
2023-03-26T19:10:30.278Z,91641.00
2023-03-26T19:14:30.216Z,91651.00
2023-03-26T19:18:30.132Z,91659.00
2023-03-26T19:22:30.060Z,91657.00
2023-03-26T19:26:29.998Z,91645.00
2023-03-26T19:30:30.019Z,91651.00
2023-03-26T19:34:29.878Z,91647.00
2023-03-26T19:38:29.813Z,91645.00
2023-03-26T19:42:43.062Z,91645.00
2023-03-26T19:46:30.724Z,91643.00
2023-03-26T19:50:29.651Z,91630.00
2023-03-26T19:54:29.590Z,91630.00
2023-03-26T19:58:29.683Z,91630.00
2023-03-26T20:02:29.836Z,91618.00
2023-03-26T20:06:42.345Z,91616.00
2023-03-26T20:10:30.763Z,91624.00
2023-03-26T20:14:29.713Z,91622.00
2023-03-26T20:18:29.736Z,91635.00
2023-03-26T20:22:29.869Z,91639.00
2023-03-26T20:26:30.063Z,91643.00
2023-03-26T20:34:30.144Z,91628.00
2023-03-26T20:38:39.134Z,91614.00
2023-03-26T20:42:30.973Z,91616.00
2023-03-26T20:46:30.969Z,91614.00
2023-03-26T20:50:31.481Z,91604.00
2023-03-26T20:54:29.774Z,91606.00
2023-03-26T20:58:31.005Z,91616.00
2023-03-26T21:02:29.808Z,91614.00
2023-03-26T21:06:29.727Z,91624.00
2023-03-26T21:10:29.785Z,91633.00
2023-03-26T21:14:29.731Z,91645.00
2023-03-26T21:18:29.713Z,91647.00
2023-03-26T21:22:29.731Z,91641.00
2023-03-26T21:26:29.756Z,91633.00
2023-03-26T21:30:29.751Z,91620.00
2023-03-26T21:34:29.712Z,91622.00
2023-03-26T21:38:29.766Z,91628.00
2023-03-26T21:42:29.813Z,91633.00
2023-03-26T21:46:29.841Z,91633.00
2023-03-26T21:50:29.792Z,91631.00
2023-03-26T21:54:29.753Z,91618.00
2023-03-26T21:58:29.726Z,91618.00
2023-03-26T22:02:29.817Z,91616.00
2023-03-26T22:06:29.783Z,91616.00
2023-03-26T22:10:29.868Z,91620.00
2023-03-26T22:14:29.889Z,91622.00
2023-03-26T22:18:29.934Z,91626.00
2023-03-26T22:22:29.946Z,91626.00
2023-03-26T22:26:30.001Z,91631.00
2023-03-26T22:30:30.132Z,91631.00
2023-03-26T22:34:30.245Z,91628.00
2023-03-26T22:38:30.369Z,91620.00
2023-03-26T22:42:30.531Z,91614.00
2023-03-26T22:46:30.612Z,91612.00
2023-03-26T22:50:30.746Z,91614.00
2023-03-26T22:54:30.862Z,91614.00
2023-03-26T22:58:31.020Z,91610.00
2023-03-26T23:02:31.036Z,91618.00
2023-03-26T23:06:31.055Z,91618.00
2023-03-26T23:10:31.149Z,91616.00
2023-03-26T23:14:31.131Z,91612.00
2023-03-26T23:18:31.204Z,91616.00
2023-03-26T23:22:31.209Z,91604.00
2023-03-26T23:26:37.761Z,91604.00
2023-03-26T23:30:32.183Z,91600.00
2023-03-26T23:34:31.114Z,91598.00
2023-03-26T23:38:43.788Z,91604.00
2023-03-26T23:42:31.981Z,91602.00
2023-03-26T23:46:31.237Z,91608.00
2023-03-26T23:50:30.946Z,91604.00
2023-03-26T23:54:31.092Z,91614.00
2023-03-26T23:58:31.291Z,91610.00
